createdAt,value
2019-01-12T00:00:18.380Z,0
2019-01-12T00:01:29.826Z,0
2019-01-12T00:02:39.892Z,0
2019-01-12T00:03:49.989Z,0
2019-01-12T00:05:00.087Z,0
2019-01-12T00:06:10.468Z,0
2019-01-12T00:07:20.547Z,0
2019-01-12T00:08:30.622Z,0
2019-01-12T00:09:40.738Z,0
2019-01-12T00:10:50.294Z,0
2019-01-12T00:12:00.103Z,0
2019-01-12T00:13:09.948Z,0
2019-01-12T00:14:19.775Z,0
2019-01-12T00:15:29.858Z,0
2019-01-12T00:16:39.725Z,0
2019-01-12T00:17:49.579Z,0
2019-01-12T00:18:59.651Z,0
2019-01-12T00:20:09.864Z,0
2019-01-12T00:21:20.012Z,0
2019-01-12T00:22:30.093Z,0
2019-01-12T00:23:40.715Z,0
2019-01-12T00:24:50.801Z,0
2019-01-12T00:26:01.319Z,0
2019-01-12T00:27:11.409Z,0
2019-01-12T00:28:21.488Z,0
2019-01-12T00:29:31.368Z,0
2019-01-12T00:30:41.423Z,0
2019-01-12T00:31:51.486Z,0
2019-01-12T00:33:02.157Z,0
2019-01-12T00:34:12.226Z,0
2019-01-12T00:35:22.307Z,0
2019-01-12T00:36:32.439Z,0
2019-01-12T00:37:42.507Z,0
2019-01-12T00:38:52.632Z,0
2019-01-12T00:40:02.486Z,0
2019-01-12T00:41:13.715Z,0
2019-01-12T00:42:23.669Z,0
2019-01-12T00:43:33.471Z,0
2019-01-12T00:44:43.529Z,0
2019-01-12T00:45:53.895Z,0
2019-01-12T00:47:05.247Z,0
2019-01-12T00:48:15.404Z,0
2019-01-12T00:49:25.057Z,0
2019-01-12T00:50:35.151Z,0
2019-01-12T00:51:44.970Z,0
2019-01-12T00:52:55.040Z,0
2019-01-12T00:54:05.123Z,0
2019-01-12T00:55:15.310Z,0
2019-01-12T00:56:25.385Z,0
2019-01-12T00:57:35.432Z,0
2019-01-12T00:58:45.503Z,0
2019-01-12T00:59:55.578Z,0
2019-01-12T01:01:05.667Z,0
2019-01-12T01:02:15.722Z,0
2019-01-12T01:03:25.532Z,0
2019-01-12T01:04:35.360Z,0
2019-01-12T01:05:45.160Z,0
2019-01-12T01:06:54.980Z,0
2019-01-12T01:08:05.149Z,0
2019-01-12T01:09:15.216Z,0
2019-01-12T01:10:25.341Z,0
2019-01-12T01:11:35.410Z,0
2019-01-12T01:12:45.539Z,0
2019-01-12T01:13:55.643Z,0
2019-01-12T01:15:05.704Z,0
2019-01-12T01:16:16.004Z,0
2019-01-12T01:17:26.070Z,0
2019-01-12T01:18:36.148Z,0
2019-01-12T01:19:46.214Z,0
2019-01-12T01:20:56.295Z,0
2019-01-12T01:22:06.133Z,0
2019-01-12T01:23:16.179Z,0
2019-01-12T01:24:26.000Z,0
2019-01-12T01:25:36.397Z,0
2019-01-12T01:26:46.183Z,0
2019-01-12T01:27:56.240Z,0
2019-01-12T01:29:08.115Z,0
2019-01-12T01:30:18.417Z,0
2019-01-12T01:31:28.488Z,0
2019-01-12T01:32:38.583Z,0
2019-01-12T01:33:48.693Z,0
2019-01-12T01:34:58.761Z,0
2019-01-12T01:36:08.625Z,0
2019-01-12T01:37:18.427Z,0
2019-01-12T01:38:28.478Z,0
2019-01-12T01:39:38.308Z,0
2019-01-12T01:40:48.369Z,0
2019-01-12T01:41:58.420Z,0
2019-01-12T01:43:08.554Z,0
2019-01-12T01:44:18.859Z,0
2019-01-12T01:45:28.662Z,0
2019-01-12T01:46:38.251Z,0
2019-01-12T01:47:48.021Z,0
2019-01-12T01:48:58.065Z,0
2019-01-12T01:50:09.110Z,0
2019-01-12T01:51:19.159Z,0
2019-01-12T01:52:28.962Z,0
2019-01-12T01:53:39.023Z,0
2019-01-12T01:54:55.476Z,0
2019-01-12T01:56:05.534Z,0
2019-01-12T01:57:15.450Z,0
2019-01-12T01:58:25.062Z,0
2019-01-12T01:59:34.959Z,0
2019-01-12T02:00:44.753Z,0
2019-01-12T02:01:54.548Z,0
2019-01-12T02:03:04.380Z,0
2019-01-12T02:04:14.433Z,0
2019-01-12T02:05:24.496Z,0
2019-01-12T02:06:34.390Z,0
2019-01-12T02:07:44.213Z,0
2019-01-12T02:08:54.578Z,0
2019-01-12T02:10:04.624Z,0
2019-01-12T02:11:14.418Z,0
2019-01-12T02:12:24.468Z,0
2019-01-12T02:13:34.304Z,0
2019-01-12T02:14:43.886Z,0
2019-01-12T02:15:53.682Z,0
2019-01-12T02:17:03.733Z,0
2019-01-12T02:18:13.552Z,0
2019-01-12T02:19:23.587Z,0
2019-01-12T02:20:33.631Z,0
2019-01-12T02:21:44.112Z,0
2019-01-12T02:22:53.921Z,0
2019-01-12T02:24:03.966Z,0
2019-01-12T02:25:14.025Z,0
2019-01-12T02:26:24.180Z,0
2019-01-12T02:27:34.280Z,0
2019-01-12T02:28:44.073Z,0
2019-01-12T02:29:53.879Z,0
2019-01-12T02:31:03.933Z,0
2019-01-12T02:32:13.732Z,0
2019-01-12T02:33:23.810Z,0
2019-01-12T02:34:34.113Z,0
2019-01-12T02:35:44.280Z,0
2019-01-12T02:36:54.369Z,0
2019-01-12T02:38:04.476Z,0
2019-01-12T02:39:14.380Z,0
2019-01-12T02:40:23.956Z,0
2019-01-12T02:41:33.519Z,0
2019-01-12T02:42:43.327Z,0
2019-01-12T02:43:52.870Z,0
2019-01-12T02:45:03.856Z,0
2019-01-12T02:46:13.931Z,0
2019-01-12T02:47:24.017Z,0
2019-01-12T02:48:34.081Z,0
2019-01-12T02:49:44.142Z,0
2019-01-12T02:50:53.938Z,0
2019-01-12T02:52:03.768Z,0
2019-01-12T02:53:13.863Z,0
2019-01-12T02:54:23.938Z,0
2019-01-12T02:55:34.003Z,0
2019-01-12T02:56:44.045Z,0
2019-01-12T02:57:54.110Z,0
2019-01-12T02:59:03.917Z,0
2019-01-12T03:00:14.394Z,0
2019-01-12T03:01:24.495Z,0
2019-01-12T03:02:34.570Z,0
2019-01-12T03:03:44.394Z,0
2019-01-12T03:35:47.572Z,0
2019-01-12T03:36:57.915Z,0
2019-01-12T03:38:10.241Z,0
2019-01-12T03:39:20.299Z,0
2019-01-12T03:40:30.386Z,0
2019-01-12T03:41:40.517Z,0
2019-01-12T03:42:50.561Z,0
2019-01-12T03:44:00.609Z,0
2019-01-12T03:45:11.021Z,0
2019-01-12T03:46:21.121Z,0
2019-01-12T03:47:31.195Z,0
2019-01-12T03:48:41.000Z,0
2019-01-12T03:49:50.785Z,0
2019-01-12T03:51:00.841Z,0
2019-01-12T03:52:10.960Z,0
2019-01-12T03:53:21.062Z,0
2019-01-12T03:54:31.121Z,0
2019-01-12T03:55:40.908Z,0
2019-01-12T03:56:50.951Z,0
2019-01-12T03:58:00.759Z,0
2019-01-12T03:59:10.623Z,0
2019-01-12T04:00:21.171Z,0
2019-01-12T04:01:31.001Z,0
2019-01-12T04:02:41.283Z,0
2019-01-12T04:03:51.099Z,0
2019-01-12T04:05:01.167Z,0
2019-01-12T04:06:11.238Z,0
2019-01-12T04:07:21.054Z,0
2019-01-12T04:08:31.097Z,0
2019-01-12T04:09:41.175Z,0
2019-01-12T04:10:51.248Z,0
2019-01-12T04:12:01.553Z,0
2019-01-12T04:13:11.587Z,0
2019-01-12T04:14:21.652Z,0
2019-01-12T04:15:31.722Z,0
2019-01-12T04:16:41.930Z,0
2019-01-12T04:17:51.988Z,0
2019-01-12T04:19:01.545Z,0
2019-01-12T04:20:11.610Z,0
2019-01-12T04:21:21.674Z,0
2019-01-12T04:22:31.784Z,0
2019-01-12T04:23:41.865Z,0
2019-01-12T04:24:51.924Z,0
2019-01-12T04:26:02.177Z,0
2019-01-12T04:27:12.249Z,0
2019-01-12T04:28:22.370Z,0
2019-01-12T04:29:32.455Z,0
2019-01-12T04:30:42.540Z,0
2019-01-12T04:31:52.603Z,0
2019-01-12T04:33:02.140Z,0
2019-01-12T04:34:12.545Z,0
2019-01-12T04:35:22.675Z,0
2019-01-12T04:36:32.980Z,0
2019-01-12T04:37:43.047Z,0
2019-01-12T04:38:58.991Z,0
2019-01-12T04:40:10.020Z,0
2019-01-12T04:41:20.314Z,0
2019-01-12T04:42:29.874Z,0
2019-01-12T04:43:39.953Z,0
2019-01-12T04:44:50.025Z,0
2019-01-12T04:45:59.825Z,0
2019-01-12T04:47:09.926Z,0
2019-01-12T04:48:19.983Z,0
2019-01-12T04:49:30.080Z,0
2019-01-12T04:50:40.181Z,0
2019-01-12T04:51:50.230Z,0
2019-01-12T04:53:00.536Z,0
2019-01-12T04:54:10.638Z,0
2019-01-12T04:55:20.705Z,0
2019-01-12T04:56:30.819Z,0
2019-01-12T04:57:40.790Z,0
2019-01-12T04:58:50.864Z,0
2019-01-12T05:00:01.147Z,0
2019-01-12T05:01:11.255Z,0
2019-01-12T05:02:21.089Z,0
2019-01-12T05:03:31.201Z,0
2019-01-12T05:04:41.319Z,0
2019-01-12T05:05:51.755Z,0
2019-01-12T05:07:03.126Z,0
2019-01-12T05:08:13.227Z,0
2019-01-12T05:09:23.314Z,0
2019-01-12T05:10:33.668Z,0
2019-01-12T05:11:44.136Z,0
2019-01-12T05:12:54.228Z,0
2019-01-12T05:14:04.025Z,0
2019-01-12T05:15:14.078Z,0
2019-01-12T05:16:24.119Z,0
2019-01-12T05:17:34.198Z,0
2019-01-12T05:18:44.251Z,0
2019-01-12T05:19:54.651Z,0
2019-01-12T05:21:04.501Z,0
2019-01-12T05:22:14.054Z,0
2019-01-12T05:23:23.592Z,0
2019-01-12T05:24:33.415Z,0
2019-01-12T05:25:51.236Z,0
2019-01-12T05:27:01.306Z,0
2019-01-12T05:28:11.389Z,0
2019-01-12T05:29:20.939Z,0
2019-01-12T05:30:31.023Z,0
2019-01-12T05:31:41.108Z,0
2019-01-12T05:32:51.199Z,0
2019-01-12T05:34:01.298Z,0
2019-01-12T05:35:11.397Z,0
2019-01-12T05:36:21.914Z,0
2019-01-12T05:37:32.080Z,0
2019-01-12T05:38:41.868Z,0
2019-01-12T05:39:51.678Z,0
2019-01-12T05:41:01.745Z,0
2019-01-12T05:42:11.562Z,0
2019-01-12T05:43:22.980Z,0
2019-01-12T05:44:33.027Z,0
2019-01-12T05:45:43.325Z,0
2019-01-12T05:46:53.129Z,0
2019-01-12T05:48:05.405Z,0
2019-01-12T05:49:15.568Z,0
2019-01-12T05:50:25.604Z,0
2019-01-12T05:51:35.506Z,0
2019-01-12T05:52:45.567Z,0
2019-01-12T05:53:55.365Z,0
2019-01-12T05:55:05.430Z,0
2019-01-12T05:56:15.256Z,0
2019-01-12T05:57:25.570Z,0
2019-01-12T05:58:35.670Z,0
2019-01-12T05:59:45.503Z,0
2019-01-12T06:00:55.545Z,0
2019-01-12T06:02:05.595Z,0
2019-01-12T06:03:15.388Z,0
2019-01-12T06:04:25.450Z,0
2019-01-12T06:05:35.249Z,0
2019-01-12T06:06:45.332Z,0
2019-01-12T06:07:55.358Z,0
2019-01-12T06:09:06.719Z,0
2019-01-12T06:10:17.299Z,0
2019-01-12T06:11:27.390Z,0
2019-01-12T06:12:37.191Z,0
2019-01-12T06:13:47.051Z,0
2019-01-12T06:14:57.100Z,0
2019-01-12T06:16:07.356Z,0
2019-01-12T06:17:17.408Z,0
2019-01-12T06:18:27.459Z,0
2019-01-12T06:19:37.538Z,0
2019-01-12T06:20:47.860Z,0
2019-01-12T06:21:57.929Z,0
2019-01-12T06:23:07.761Z,0
2019-01-12T06:24:17.816Z,0
2019-01-12T06:25:27.621Z,0
2019-01-12T06:26:37.416Z,0
2019-01-12T06:27:47.474Z,0
2019-01-12T06:28:57.545Z,0
2019-01-12T06:30:08.490Z,0
2019-01-12T06:31:18.588Z,0
2019-01-12T06:32:28.554Z,0
2019-01-12T06:33:38.373Z,0
2019-01-12T06:34:48.706Z,0
2019-01-12T06:35:58.759Z,0
2019-01-12T06:37:10.410Z,0
2019-01-12T06:38:20.452Z,0
2019-01-12T06:39:30.516Z,0
2019-01-12T06:40:40.305Z,0
2019-01-12T06:41:50.111Z,0
2019-01-12T06:43:00.328Z,0
2019-01-12T06:44:10.187Z,0
2019-01-12T06:45:20.514Z,0
2019-01-12T06:46:30.622Z,0
2019-01-12T06:47:41.095Z,0
2019-01-12T06:48:51.185Z,0
2019-01-12T06:50:03.194Z,0
2019-01-12T06:51:13.361Z,0
2019-01-12T06:52:23.417Z,0
2019-01-12T06:53:33.675Z,0
2019-01-12T06:54:43.784Z,0
2019-01-12T06:55:53.598Z,0
2019-01-12T06:57:03.660Z,0
2019-01-12T06:58:13.719Z,0
2019-01-12T06:59:23.529Z,0
2019-01-12T07:00:33.682Z,0
2019-01-12T07:01:43.745Z,0
2019-01-12T07:02:53.801Z,0
2019-01-12T07:04:03.853Z,0
2019-01-12T07:05:13.656Z,0
2019-01-12T07:06:23.247Z,0
2019-01-12T07:07:33.312Z,0
2019-01-12T07:08:43.429Z,0
2019-01-12T07:09:53.467Z,0
2019-01-12T07:11:03.515Z,0
2019-01-12T07:12:13.603Z,5
2019-01-12T07:13:23.637Z,5
2019-01-12T07:14:33.506Z,5
2019-01-12T07:15:44.391Z,5
2019-01-12T07:16:54.187Z,5
2019-01-12T07:18:11.280Z,5
2019-01-12T07:19:21.383Z,10
2019-01-12T07:20:31.672Z,10
2019-01-12T07:21:41.751Z,10
2019-01-12T07:22:53.638Z,10
2019-01-12T07:24:03.729Z,10
2019-01-12T07:25:13.913Z,10
2019-01-12T07:26:27.335Z,10
2019-01-12T07:27:37.150Z,10
2019-01-12T07:28:47.214Z,10
2019-01-12T07:29:57.018Z,10
2019-01-12T07:31:07.120Z,10
2019-01-12T07:32:17.511Z,10
2019-01-12T07:33:27.568Z,10
2019-01-12T07:34:37.641Z,10
2019-01-12T07:35:47.454Z,10
2019-01-12T07:36:57.513Z,5
2019-01-12T07:38:07.210Z,5
2019-01-12T07:39:17.100Z,5
2019-01-12T07:40:27.157Z,5
2019-01-12T07:41:37.261Z,10
2019-01-12T07:42:47.333Z,10
2019-01-12T07:43:57.120Z,10
2019-01-12T07:45:07.179Z,10
2019-01-12T07:46:17.245Z,10
2019-01-12T07:47:27.668Z,10
2019-01-12T07:48:37.733Z,10
2019-01-12T07:49:47.548Z,10
2019-01-12T07:50:57.607Z,15
2019-01-12T07:52:07.401Z,15
2019-01-12T07:53:17.490Z,15
2019-01-12T07:54:27.561Z,15
2019-01-12T07:55:37.682Z,15
2019-01-12T07:56:47.742Z,15
2019-01-12T07:57:57.913Z,15
2019-01-12T07:59:10.105Z,15
2019-01-12T08:00:20.837Z,15
2019-01-12T08:01:30.657Z,15
2019-01-12T08:02:40.730Z,15
2019-01-12T08:03:50.546Z,20
2019-01-12T08:05:00.353Z,20
2019-01-12T08:06:11.514Z,15
2019-01-12T08:07:21.577Z,20
2019-01-12T08:08:31.642Z,20
2019-01-12T08:09:41.814Z,20
2019-01-12T08:10:51.919Z,20
2019-01-12T08:12:02.004Z,20
2019-01-12T08:13:12.066Z,20
2019-01-12T08:14:22.142Z,25
2019-01-12T08:15:31.973Z,25
2019-01-12T08:16:41.764Z,20
2019-01-12T08:17:51.837Z,20
2019-01-12T08:19:01.900Z,20
2019-01-12T08:20:12.126Z,20
2019-01-12T08:21:21.972Z,20
2019-01-12T08:22:32.013Z,20
2019-01-12T08:23:42.038Z,15
2019-01-12T08:24:51.836Z,15
2019-01-12T08:26:03.090Z,15
2019-01-12T08:27:13.165Z,15
2019-01-12T08:28:23.235Z,15
2019-01-12T08:29:33.329Z,15
2019-01-12T08:30:43.393Z,15
2019-01-12T08:31:53.201Z,15
2019-01-12T08:33:03.015Z,15
2019-01-12T08:34:13.094Z,15
2019-01-12T08:35:23.392Z,15
2019-01-12T08:36:33.457Z,15
2019-01-12T08:37:43.025Z,20
2019-01-12T08:38:52.837Z,20
2019-01-12T08:40:04.911Z,25
2019-01-12T08:41:14.745Z,25
2019-01-12T08:42:24.845Z,25
2019-01-12T08:43:34.647Z,30
2019-01-12T08:44:44.718Z,35
2019-01-12T08:45:55.123Z,35
2019-01-12T08:47:06.106Z,40
2019-01-12T08:48:16.491Z,40
2019-01-12T08:49:26.563Z,40
2019-01-12T08:50:36.660Z,40
2019-01-12T08:51:46.735Z,35
2019-01-12T08:52:56.799Z,35
2019-01-12T08:54:06.615Z,35
2019-01-12T08:55:16.680Z,30
2019-01-12T08:56:26.775Z,30
2019-01-12T08:57:36.578Z,30
2019-01-12T08:58:46.649Z,35
2019-01-12T08:59:56.468Z,30
2019-01-12T09:01:06.526Z,30
2019-01-12T09:02:16.618Z,30
2019-01-12T09:03:26.475Z,35
2019-01-12T09:04:43.331Z,40
2019-01-12T09:05:53.386Z,45
2019-01-12T09:07:03.474Z,45
2019-01-12T09:08:13.580Z,40
2019-01-12T09:09:23.678Z,35
2019-01-12T09:10:33.501Z,35
2019-01-12T09:11:43.335Z,30
2019-01-12T09:12:53.433Z,30
2019-01-12T09:14:04.199Z,35
2019-01-12T09:15:14.033Z,35
2019-01-12T09:16:24.102Z,35
2019-01-12T09:17:33.655Z,40
2019-01-12T09:18:43.741Z,35
2019-01-12T09:19:53.854Z,35
2019-01-12T09:21:03.933Z,30
2019-01-12T09:22:15.219Z,30
2019-01-12T09:23:25.294Z,35
2019-01-12T09:24:35.402Z,35
2019-01-12T09:25:45.243Z,35
2019-01-12T09:26:55.553Z,40
2019-01-12T09:28:07.977Z,40
2019-01-12T09:29:18.193Z,35
2019-01-12T09:30:28.294Z,30
2019-01-12T09:31:38.158Z,30
2019-01-12T09:32:47.988Z,30
2019-01-12T09:33:58.119Z,30
2019-01-12T09:35:10.232Z,25
2019-01-12T09:36:20.332Z,30
2019-01-12T09:37:30.544Z,30
2019-01-12T09:38:40.666Z,30
2019-01-12T09:39:50.764Z,35
2019-01-12T09:41:00.862Z,35
2019-01-12T09:42:10.700Z,30
2019-01-12T09:43:20.825Z,35
2019-01-12T09:44:30.908Z,35
2019-01-12T09:45:40.850Z,35
2019-01-12T09:46:50.686Z,35
2019-01-12T09:48:02.949Z,35
2019-01-12T09:49:13.549Z,35
2019-01-12T09:50:23.660Z,35
2019-01-12T09:51:33.763Z,35
2019-01-12T09:52:43.587Z,35
2019-01-12T09:53:53.665Z,35
2019-01-12T09:55:03.804Z,35
2019-01-12T09:56:13.937Z,35
2019-01-12T09:57:24.122Z,35
2019-01-12T09:58:34.263Z,35
2019-01-12T09:59:44.092Z,30
2019-01-12T10:00:54.287Z,30
2019-01-12T10:02:04.686Z,30
2019-01-12T10:03:14.761Z,30
2019-01-12T10:04:24.862Z,30
2019-01-12T10:05:35.004Z,25
2019-01-12T10:06:59.879Z,25
2019-01-12T10:08:12.997Z,25
2019-01-12T10:09:23.120Z,25
2019-01-12T10:10:33.524Z,25
2019-01-12T10:11:43.678Z,30
2019-01-12T10:12:53.908Z,30
2019-01-12T10:14:04.019Z,30
2019-01-12T10:15:13.867Z,30
2019-01-12T10:16:23.982Z,30
2019-01-12T10:17:34.091Z,30
2019-01-12T10:18:43.924Z,30
2019-01-12T10:19:54.024Z,25
2019-01-12T10:21:03.903Z,30
2019-01-12T10:22:14.011Z,30
2019-01-12T10:23:23.849Z,25
2019-01-12T10:24:33.963Z,30
2019-01-12T10:25:44.055Z,30
2019-01-12T10:26:58.441Z,25
2019-01-12T10:28:08.955Z,25
2019-01-12T10:29:19.066Z,30
2019-01-12T10:30:29.504Z,35
2019-01-12T10:31:39.620Z,35
2019-01-12T10:32:49.941Z,35
2019-01-12T10:33:59.784Z,35
2019-01-12T10:35:11.046Z,35
2019-01-12T10:36:21.024Z,40
2019-01-12T10:37:31.100Z,40
2019-01-12T10:38:41.190Z,40
2019-01-12T10:39:52.879Z,40
2019-01-12T10:41:02.703Z,40
2019-01-12T10:42:13.030Z,35
2019-01-12T10:43:23.132Z,40
2019-01-12T10:44:33.237Z,40
2019-01-12T10:45:43.532Z,40
2019-01-12T10:46:53.619Z,40
2019-01-12T10:48:03.776Z,40
2019-01-12T10:49:13.842Z,40
2019-01-12T10:50:23.674Z,40
2019-01-12T10:51:33.737Z,40
2019-01-12T10:52:43.842Z,40
2019-01-12T10:53:54.015Z,35
2019-01-12T10:55:04.102Z,40
2019-01-12T10:56:13.955Z,40
2019-01-12T10:57:24.068Z,40
2019-01-12T10:58:33.990Z,35
2019-01-12T10:59:43.843Z,35
2019-01-12T11:00:53.916Z,35
2019-01-12T11:02:03.990Z,30
2019-01-12T11:03:14.076Z,30
2019-01-12T11:04:24.193Z,35
2019-01-12T11:05:34.282Z,40
2019-01-12T11:06:44.106Z,40
2019-01-12T11:07:54.689Z,40
2019-01-12T11:09:08.012Z,35
2019-01-12T11:10:18.343Z,35
2019-01-12T11:11:28.450Z,45
2019-01-12T11:12:38.575Z,45
2019-01-12T11:13:48.652Z,45
2019-01-12T11:14:57.935Z,40
2019-01-12T11:16:09.579Z,35
2019-01-12T11:17:19.662Z,35
2019-01-12T11:18:29.786Z,35
2019-01-12T11:19:39.872Z,35
2019-01-12T11:20:49.990Z,35
2019-01-12T11:21:59.840Z,35
2019-01-12T11:23:12.523Z,35
2019-01-12T11:24:22.592Z,35
2019-01-12T11:25:32.421Z,35
2019-01-12T11:26:42.520Z,35
2019-01-12T11:27:52.605Z,35
2019-01-12T11:29:02.757Z,40
2019-01-12T11:30:12.846Z,40
2019-01-12T11:31:29.347Z,45
2019-01-12T11:32:39.400Z,45
2019-01-12T11:33:49.286Z,45
2019-01-12T11:34:59.369Z,45
2019-01-12T11:36:09.436Z,45
2019-01-12T11:37:19.521Z,40
2019-01-12T11:38:29.588Z,45
2019-01-12T11:39:39.151Z,45
2019-01-12T11:40:49.247Z,45
2019-01-12T11:41:59.348Z,45
2019-01-12T11:43:08.937Z,50
2019-01-12T11:44:18.996Z,55
2019-01-12T11:45:28.805Z,55
2019-01-12T11:46:38.886Z,55
2019-01-12T11:47:49.275Z,55
2019-01-12T11:48:59.364Z,60
2019-01-12T11:50:09.451Z,60
2019-01-12T11:51:19.515Z,65
2019-01-12T11:52:29.632Z,80
2019-01-12T11:53:39.699Z,80
2019-01-12T11:54:49.781Z,75
2019-01-12T11:55:59.871Z,65
2019-01-12T11:57:09.974Z,70
2019-01-12T11:58:20.532Z,75
2019-01-12T11:59:30.617Z,70
2019-01-12T12:00:40.961Z,75
2019-01-12T12:01:51.034Z,80
2019-01-12T12:03:01.379Z,75
2019-01-12T12:04:11.524Z,75
2019-01-12T12:05:22.217Z,70
2019-01-12T12:06:32.563Z,65
2019-01-12T12:07:42.712Z,60
2019-01-12T12:08:52.839Z,55
2019-01-12T12:10:02.937Z,55
2019-01-12T12:11:13.093Z,55
2019-01-12T12:12:23.170Z,60
2019-01-12T12:13:33.237Z,60
2019-01-12T12:14:43.322Z,55
2019-01-12T12:15:53.638Z,55
2019-01-12T12:17:05.973Z,55
2019-01-12T12:18:16.045Z,55
2019-01-12T12:19:26.122Z,55
2019-01-12T12:20:36.214Z,55
2019-01-12T12:21:46.118Z,55
2019-01-12T12:22:56.215Z,50
2019-01-12T12:24:08.297Z,50
2019-01-12T12:25:18.388Z,50
2019-01-12T12:26:28.690Z,50
2019-01-12T12:27:38.783Z,45
2019-01-12T12:28:48.599Z,45
2019-01-12T12:29:58.470Z,40
2019-01-12T12:31:08.587Z,40
2019-01-12T12:32:19.105Z,35
2019-01-12T12:33:29.197Z,40
2019-01-12T12:34:39.308Z,35
2019-01-12T12:35:49.398Z,30
2019-01-12T12:36:59.504Z,30
2019-01-12T12:38:09.644Z,35
2019-01-12T12:39:19.730Z,40
2019-01-12T12:40:29.574Z,40
2019-01-12T12:41:39.400Z,40
2019-01-12T12:42:49.679Z,40
2019-01-12T12:43:59.756Z,40
2019-01-12T12:45:11.118Z,40
2019-01-12T12:46:20.947Z,40
2019-01-12T12:47:31.049Z,40
2019-01-12T12:48:41.357Z,35
2019-01-12T12:49:51.191Z,35
2019-01-12T12:51:01.045Z,35
2019-01-12T12:52:11.152Z,35
2019-01-12T12:53:21.228Z,40
2019-01-12T12:54:31.293Z,45
2019-01-12T12:55:41.398Z,45
2019-01-12T12:56:51.706Z,45
2019-01-12T12:58:01.811Z,45
2019-01-12T12:59:11.938Z,45
2019-01-12T13:00:22.494Z,40
2019-01-12T13:01:32.590Z,40
2019-01-12T13:02:42.406Z,45
2019-01-12T13:03:52.099Z,45
2019-01-12T13:05:01.959Z,40
2019-01-12T13:06:12.069Z,40
2019-01-12T13:07:21.949Z,45
2019-01-12T13:08:32.028Z,40
2019-01-12T13:09:42.196Z,40
2019-01-12T13:10:52.345Z,40
2019-01-12T13:12:02.677Z,40
2019-01-12T13:13:12.825Z,45
2019-01-12T13:14:23.004Z,45
2019-01-12T13:15:33.154Z,40
2019-01-12T13:16:43.264Z,40
2019-01-12T13:17:53.347Z,40
2019-01-12T13:19:04.075Z,40
2019-01-12T13:20:14.153Z,40
2019-01-12T13:21:24.253Z,40
2019-01-12T13:22:34.084Z,40
2019-01-12T13:23:44.174Z,40
2019-01-12T13:24:53.991Z,40
2019-01-12T13:26:04.872Z,40
2019-01-12T13:27:14.952Z,45
2019-01-12T13:28:25.020Z,50
2019-01-12T13:29:35.112Z,50
2019-01-12T13:30:45.172Z,55
2019-01-12T13:31:55.304Z,55
2019-01-12T13:33:06.566Z,55
2019-01-12T13:34:16.369Z,55
2019-01-12T13:35:26.512Z,55
2019-01-12T13:36:36.597Z,60
2019-01-12T13:37:46.462Z,60
2019-01-12T13:38:56.557Z,60
2019-01-12T13:40:06.632Z,60
2019-01-12T13:41:16.972Z,55
2019-01-12T13:42:27.294Z,55
2019-01-12T13:43:37.384Z,55
2019-01-12T13:44:47.473Z,50
2019-01-12T13:45:57.600Z,50
2019-01-12T13:47:09.901Z,50
2019-01-12T13:48:19.999Z,55
2019-01-12T13:49:30.125Z,55
2019-01-12T13:50:40.189Z,55
2019-01-12T13:51:50.289Z,50
2019-01-12T13:53:00.404Z,50
2019-01-12T13:54:10.526Z,45
2019-01-12T13:55:20.675Z,40
2019-01-12T13:56:30.698Z,40
2019-01-12T13:57:47.032Z,40
2019-01-12T13:58:57.434Z,40
2019-01-12T14:00:07.960Z,40
2019-01-12T14:01:17.824Z,35
2019-01-12T14:02:27.974Z,40
2019-01-12T14:03:38.278Z,35
2019-01-12T14:04:48.350Z,35
2019-01-12T14:05:58.235Z,35
2019-01-12T14:07:10.511Z,30
2019-01-12T14:08:20.837Z,30
2019-01-12T14:09:30.954Z,30
2019-01-12T14:10:41.053Z,30
2019-01-12T14:11:50.853Z,25
2019-01-12T14:13:00.682Z,25
2019-01-12T14:14:10.947Z,25
2019-01-12T14:15:20.535Z,25
2019-01-12T14:16:30.614Z,25
2019-01-12T14:17:40.449Z,25
2019-01-12T14:18:50.604Z,25
2019-01-12T14:20:00.489Z,25
2019-01-12T14:21:11.448Z,25
2019-01-12T14:22:21.282Z,20
2019-01-12T14:23:31.366Z,20
2019-01-12T14:24:40.986Z,20
2019-01-12T14:25:51.100Z,20
2019-01-12T14:27:02.708Z,20
2019-01-12T14:28:12.552Z,15
2019-01-12T14:29:22.659Z,15
2019-01-12T14:30:32.795Z,10
2019-01-12T14:31:43.141Z,10
2019-01-12T14:32:53.231Z,10
2019-01-12T14:34:03.392Z,10
2019-01-12T14:35:13.507Z,10
2019-01-12T14:36:23.163Z,10
2019-01-12T14:37:33.265Z,10
2019-01-12T14:38:43.956Z,10
2019-01-12T14:39:54.330Z,10
2019-01-12T14:41:04.415Z,10
2019-01-12T14:42:14.283Z,10
2019-01-12T14:43:24.589Z,10
2019-01-12T14:44:34.444Z,10
2019-01-12T14:45:44.529Z,5
2019-01-12T14:46:54.689Z,5
2019-01-12T14:48:04.819Z,5
2019-01-12T14:49:15.076Z,5
2019-01-12T14:50:25.417Z,5
2019-01-12T14:51:35.593Z,5
2019-01-12T14:52:45.740Z,5
2019-01-12T14:53:55.855Z,5
2019-01-12T14:55:06.033Z,5
2019-01-12T14:56:16.252Z,5
2019-01-12T14:57:26.357Z,5
2019-01-12T14:58:36.277Z,5
2019-01-12T14:59:46.500Z,5
2019-01-12T15:00:56.683Z,0
2019-01-12T15:02:06.594Z,0
2019-01-12T15:03:16.501Z,0
2019-01-12T15:04:26.615Z,0
2019-01-12T15:05:38.572Z,0
2019-01-12T15:06:48.733Z,0
2019-01-12T15:07:58.859Z,0
2019-01-12T15:09:11.443Z,0
2019-01-12T15:10:23.283Z,0
2019-01-12T15:11:33.385Z,0
2019-01-12T15:12:43.459Z,0
2019-01-12T15:13:53.542Z,0
2019-01-12T15:15:03.612Z,0
2019-01-12T15:16:13.835Z,0
2019-01-12T15:17:23.474Z,0
2019-01-12T15:18:34.138Z,0
2019-01-12T15:19:44.023Z,0
2019-01-12T15:20:54.084Z,0
2019-01-12T15:22:04.153Z,0
2019-01-12T15:23:14.242Z,0
2019-01-12T15:24:24.322Z,0
2019-01-12T15:25:34.433Z,0
2019-01-12T15:26:44.560Z,0
2019-01-12T15:27:54.617Z,0
2019-01-12T15:29:05.795Z,0
2019-01-12T15:30:15.928Z,0
2019-01-12T15:31:26.347Z,0
2019-01-12T15:32:36.221Z,0
2019-01-12T15:33:46.294Z,0
2019-01-12T15:34:56.172Z,0
2019-01-12T15:36:06.066Z,0
2019-01-12T15:37:16.248Z,0
2019-01-12T15:38:26.341Z,0
2019-01-12T15:39:36.176Z,0
2019-01-12T15:40:45.995Z,0
2019-01-12T15:41:55.579Z,0
2019-01-12T15:43:05.744Z,0
2019-01-12T15:44:15.833Z,0
2019-01-12T15:45:25.973Z,0
2019-01-12T15:46:36.079Z,0
2019-01-12T15:47:46.194Z,0
2019-01-12T15:48:56.266Z,0
2019-01-12T15:50:06.335Z,0
2019-01-12T15:51:16.408Z,0
2019-01-12T15:52:26.507Z,0
2019-01-12T15:53:36.602Z,0
2019-01-12T15:54:46.713Z,0
2019-01-12T15:55:56.805Z,0
2019-01-12T15:57:06.851Z,0
2019-01-12T15:58:23.293Z,0
2019-01-12T15:59:33.130Z,0
2019-01-12T16:00:43.225Z,0
2019-01-12T16:01:53.308Z,0
2019-01-12T16:03:03.394Z,0
2019-01-12T16:04:13.808Z,0
2019-01-12T16:05:23.919Z,0
2019-01-12T16:06:33.811Z,0
2019-01-12T16:07:43.883Z,0
2019-01-12T16:08:53.972Z,0
2019-01-12T16:10:06.420Z,0
2019-01-12T16:11:17.316Z,0
2019-01-12T16:12:27.411Z,0
2019-01-12T16:13:38.398Z,0
2019-01-12T16:14:48.513Z,0
2019-01-12T16:15:58.768Z,0
2019-01-12T16:17:10.021Z,0
2019-01-12T16:18:20.165Z,0
2019-01-12T16:19:30.262Z,0
2019-01-12T16:20:40.338Z,0
2019-01-12T16:21:50.191Z,0
2019-01-12T16:23:00.365Z,0
2019-01-12T16:24:10.505Z,0
2019-01-12T16:25:20.618Z,0
2019-01-12T16:26:30.733Z,0
2019-01-12T16:27:40.910Z,0
2019-01-12T16:28:50.759Z,0
2019-01-12T16:30:02.491Z,0
2019-01-12T16:31:12.573Z,0
2019-01-12T16:32:22.389Z,0
2019-01-12T16:33:32.233Z,0
2019-01-12T16:34:42.302Z,0
2019-01-12T16:35:52.450Z,0
2019-01-12T16:37:03.024Z,0
2019-01-12T16:38:13.159Z,0
2019-01-12T16:39:23.248Z,0
2019-01-12T16:40:33.315Z,0
2019-01-12T16:41:43.387Z,0
2019-01-12T16:42:53.742Z,0
2019-01-12T16:44:03.872Z,0
2019-01-12T16:45:13.935Z,0
2019-01-12T16:46:23.811Z,0
2019-01-12T16:47:33.888Z,0
2019-01-12T16:48:45.515Z,0
2019-01-12T16:49:55.472Z,0
2019-01-12T16:51:05.376Z,0
2019-01-12T16:52:15.737Z,0
2019-01-12T16:53:25.536Z,0
2019-01-12T16:54:35.897Z,0
2019-01-12T16:55:46.431Z,0
2019-01-12T16:56:56.576Z,0
2019-01-12T16:58:07.741Z,0
2019-01-12T16:59:17.974Z,0
2019-01-12T17:00:28.245Z,0
2019-01-12T17:01:38.339Z,0
2019-01-12T17:02:48.420Z,0
2019-01-12T17:03:58.623Z,0
2019-01-12T17:05:09.557Z,0
2019-01-12T17:06:19.759Z,0
2019-01-12T17:07:29.884Z,0
2019-01-12T17:08:40.223Z,0
2019-01-12T17:09:50.318Z,0
2019-01-12T17:11:00.625Z,0
2019-01-12T17:12:11.751Z,0
2019-01-12T17:13:21.863Z,0
2019-01-12T17:14:31.956Z,0
2019-01-12T17:15:44.786Z,0
2019-01-12T17:16:54.655Z,0
2019-01-12T17:18:04.543Z,0
2019-01-12T17:19:14.677Z,0
2019-01-12T17:20:24.780Z,0
2019-01-12T17:21:34.675Z,0
2019-01-12T17:22:44.800Z,0
2019-01-12T17:23:54.943Z,0
2019-01-12T17:25:06.244Z,0
2019-01-12T17:26:16.653Z,0
2019-01-12T17:27:26.775Z,0
2019-01-12T17:28:42.219Z,0
2019-01-12T17:29:52.458Z,0
2019-01-12T17:31:02.312Z,0
2019-01-12T17:32:12.461Z,0
2019-01-12T17:33:22.569Z,0